Overview Statistics Trail Chart Weather Telemetry Raw packets
 

This is the latest recevied weather packets stored in our database for station/object N3TJJ-2. If no packets are shown the sender has not sent any weather packets the latest 10 day(s).

<< 38 39 40 41 42 43 44 >>
Time Temp. Humidity Pressure Rain* Wind** Luminosity Snow
1788307251 22.22° C 64% 1015.3 hPa 0 mm - - -
1788306887 22.22° C 66% 1015.4 hPa 0 mm - - -
1788306535 22.78° C 70% 1015.7 hPa 0 mm - - -
1788306173 25° C 76% 1015.5 hPa 0 mm - - -
1788305808 28.33° C 74% 1014.7 hPa 0 mm - - -
1788305448 29.44° C 75% 1013.5 hPa 0 mm - - -
1788305087 30° C 75% 1013.3 hPa 0 mm - - -
1788304863 30.56° C 75% 1013.8 hPa 0 mm - - -
1788304511 30.56° C 75% 1014.2 hPa 0 mm - - -
1788304092 30.56° C 75% 1014 hPa 0 mm - - -
1788303680 30.56° C 75% 1014.5 hPa 0 mm - - -
1788303291 30.56° C 75% 1014.5 hPa 0 mm - - -
1788302935 31.11° C 75% 1014.3 hPa 0 mm - - -
1788302571 31.11° C 75% 1014.3 hPa 0 mm - - -
1788302207 31.11° C 74% 1014.6 hPa 0 mm - - -
1788301883 31.67° C 74% 1014.3 hPa 0 mm - - -
1788301536 32.22° C 73% 1014.5 hPa 0 mm - - -
1788301136 32.22° C 73% 1014.7 hPa 0 mm - - -
1788300772 32.22° C 74% 1014.1 hPa 0 mm - - -
1788300407 32.22° C 72% 1014 hPa 0 mm - - -
1788300047 32.22° C 72% 1014.2 hPa 0 mm - - -
1788299691 32.22° C 71% 1014.3 hPa 0 mm - - -
1788299339 32.22° C 71% 1014.2 hPa 0 mm - - -
1788298972 32.22° C 71% 1014.3 hPa 0 mm - - -
1788298612 32.22° C 71% 1014.4 hPa 0 mm - - -

* Rain latest hour (hover to see other rain measurements)
** Current wind speed in m/s (hover to see current wind gust speed)